Time;durP1;ratioP1;P1;durP2;ratioP2;P2;SDS_P1;SDS_P2;PMS_P1;PMS_P2;Temp;Humidity;BMP_temperature;BMP_pressure;BME280_temperature;BME280_humidity;BME280_pressure;Samples;Min_cycle;Max_cycle;Signal;HPM_P1;HPM_P2
2021/08/28 00:01:13;;;;;;;;;2.00;2.00;;;;;;;;5034298;28;45552;-84
2021/08/28 00:03:38;;;;;;;;;2.00;1.00;;;;;;;;5032961;28;45393;-85
2021/08/28 00:06:03;;;;;;;;;1.67;1.67;;;;;;;;5031530;28;45731;-84
2021/08/28 00:08:28;;;;;;;;;2.00;2.00;;;;;;;;5029978;28;48458;-85
2021/08/28 00:10:53;;;;;;;;;3.00;1.00;;;;;;;;5031055;28;45440;-85
2021/08/28 00:13:19;;;;;;;;;2.00;2.00;;;;;;;;5031688;28;45333;-84
2021/08/28 00:15:44;;;;;;;;;2.00;2.00;;;;;;;;5032403;28;45430;-84
2021/08/28 00:18:09;;;;;;;;;3.00;2.00;;;;;;;;5024591;28;46089;-82
2021/08/28 00:20:35;;;;;;;;;3.00;1.00;;;;;;;;5025196;28;45425;-84
2021/08/28 00:23:04;;;;;;;;;3.75;1.00;;;;;;;;5031480;28;45419;-84
2021/08/28 00:25:30;;;;;;;;;1.00;1.00;;;;;;;;5031021;28;45649;-82
2021/08/28 00:27:55;;;;;;;;;1.00;1.00;;;;;;;;5034843;28;46913;-84
2021/08/28 00:30:20;;;;;;;;;2.00;2.00;;;;;;;;5030743;28;45480;-84
2021/08/28 00:32:45;;;;;;;;;3.00;2.00;;;;;;;;5031358;28;45541;-82
2021/08/28 00:35:11;;;;;;;;;3.00;2.00;;;;;;;;5029827;28;45723;-84
2021/08/28 00:37:36;;;;;;;;;2.75;1.00;;;;;;;;5029782;28;47022;-83
2021/08/28 00:40:02;;;;;;;;;2.00;2.00;;;;;;;;5032496;28;45656;-84
2021/08/28 00:42:27;;;;;;;;;3.00;2.00;;;;;;;;5030486;28;45539;-84
2021/08/28 00:44:52;;;;;;;;;1.75;1.75;;;;;;;;5030710;28;45444;-85
2021/08/28 00:47:21;;;;;;;;;1.67;1.67;;;;;;;;5030308;28;48792;-84
2021/08/28 00:49:47;;;;;;;;;1.00;1.00;;;;;;;;5030914;28;45257;-84
2021/08/28 00:52:13;;;;;;;;;4.25;2.25;;;;;;;;5032204;28;45267;-84
2021/08/28 00:54:38;;;;;;;;;3.25;2.00;;;;;;;;5031679;28;45540;-84
2021/08/28 00:57:05;;;;;;;;;2.00;1.67;;;;;;;;5030255;28;45557;-85
2021/08/28 00:59:30;;;;;;;;;3.50;2.00;;;;;;;;5030862;28;45744;-84
2021/08/28 01:01:56;;;;;;;;;6.67;2.67;;;;;;;;5029748;28;45538;-84
2021/08/28 01:04:22;;;;;;;;;2.00;2.00;;;;;;;;5032088;28;45520;-84
2021/08/28 01:06:57;;;;;;;;;2.00;2.00;;;;;;;;5033263;28;46230;-82
2021/08/28 01:09:29;;;;;;;;;4.75;2.00;;;;;;;;5030765;28;45285;-84
2021/08/28 01:12:15;;;;;;;;;3.00;2.25;;;;;;;;5027839;28;45753;-84
2021/08/28 01:14:42;;;;;;;;;2.75;2.25;;;;;;;;5029497;28;45428;-83
2021/08/28 01:17:08;;;;;;;;;2.75;2.25;;;;;;;;5028653;28;47474;-84
2021/08/28 01:19:37;;;;;;;;;3.00;1.75;;;;;;;;5030675;28;45410;-84
2021/08/28 01:22:03;;;;;;;;;2.75;2.00;;;;;;;;5031814;28;45517;-84
2021/08/28 01:24:30;;;;;;;;;2.00;2.00;;;;;;;;5031619;28;45539;-83
2021/08/28 01:27:19;;;;;;;;;1.00;1.00;;;;;;;;5028378;28;49120;-84
2021/08/28 01:29:45;;;;;;;;;5.00;2.00;;;;;;;;5024756;28;45469;-84
2021/08/28 01:32:12;;;;;;;;;1.00;1.00;;;;;;;;5030043;28;45491;-84
2021/08/28 01:34:38;;;;;;;;;1.75;1.75;;;;;;;;5030968;28;45676;-84
2021/08/28 01:37:03;;;;;;;;;3.25;2.00;;;;;;;;5031468;28;45914;-84
2021/08/28 01:39:30;;;;;;;;;1.75;1.75;;;;;;;;5030744;28;45400;-83
2021/08/28 01:41:59;;;;;;;;;4.50;2.75;;;;;;;;5030739;28;45480;-84
2021/08/28 01:44:24;;;;;;;;;1.00;1.00;;;;;;;;5025144;28;45663;-84
2021/08/28 01:46:51;;;;;;;;;1.50;1.00;;;;;;;;5030358;28;46028;-84
2021/08/28 01:49:16;;;;;;;;;4.00;1.25;;;;;;;;5031627;28;45401;-84
2021/08/28 01:51:43;;;;;;;;;2.50;1.25;;;;;;;;5032446;28;45860;-84
2021/08/28 01:54:09;;;;;;;;;2.00;1.25;;;;;;;;5031529;28;45623;-84
2021/08/28 01:56:34;;;;;;;;;2.00;2.00;;;;;;;;5029820;28;46722;-83
2021/08/28 01:59:00;;;;;;;;;3.67;1.00;;;;;;;;5018885;28;45965;-83
2021/08/28 02:01:26;;;;;;;;;2.00;0.50;;;;;;;;5025428;28;45457;-84
2021/08/28 02:03:52;;;;;;;;;2.00;2.00;;;;;;;;5032640;28;45394;-83
2021/08/28 02:06:21;;;;;;;;;3.75;1.25;;;;;;;;5028723;28;47021;-84
2021/08/28 02:08:55;;;;;;;;;1.00;1.00;;;;;;;;5028859;28;45708;-84
2021/08/28 02:11:27;;;;;;;;;2.50;2.00;;;;;;;;5029619;28;45566;-84
2021/08/28 02:14:00;;;;;;;;;3.00;2.00;;;;;;;;5030445;28;45273;-84
2021/08/28 02:16:26;;;;;;;;;5.50;1.25;;;;;;;;5023933;28;48041;-84
2021/08/28 02:18:51;;;;;;;;;3.25;2.00;;;;;;;;5031917;28;45348;-82
2021/08/28 02:21:18;;;;;;;;;3.00;1.00;;;;;;;;5029598;28;45545;-83
2021/08/28 02:23:46;;;;;;;;;1.00;1.00;;;;;;;;5030167;28;45592;-84
2021/08/28 02:26:15;;;;;;;;;2.00;1.50;;;;;;;;5029780;28;45555;-84
2021/08/28 02:28:51;;;;;;;;;2.25;1.00;;;;;;;;5028395;28;45603;-84
2021/08/28 02:31:21;;;;;;;;;1.25;1.25;;;;;;;;5031901;28;45427;-84
2021/08/28 02:33:47;;;;;;;;;3.00;3.00;;;;;;;;5035332;28;45521;-84
2021/08/28 02:36:13;;;;;;;;;3.25;2.00;;;;;;;;5032526;28;45580;-84
2021/08/28 02:38:40;;;;;;;;;2.00;2.00;;;;;;;;5033919;28;45513;-84
2021/08/28 02:41:06;;;;;;;;;2.00;2.00;;;;;;;;5021199;28;45427;-84
2021/08/28 02:43:31;;;;;;;;;2.00;2.00;;;;;;;;5032954;28;45515;-83
2021/08/28 02:45:57;;;;;;;;;1.25;1.25;;;;;;;;5035550;28;47111;-84
2021/08/28 02:48:23;;;;;;;;;1.00;1.00;;;;;;;;5033300;28;48823;-84
2021/08/28 02:50:49;;;;;;;;;2.50;1.00;;;;;;;;5032776;28;45430;-82
2021/08/28 02:53:16;;;;;;;;;4.75;2.00;;;;;;;;5033008;28;45474;-84
2021/08/28 02:55:43;;;;;;;;;5.00;2.00;;;;;;;;5032212;28;45449;-84
2021/08/28 02:58:08;;;;;;;;;5.50;1.25;;;;;;;;5034078;28;45439;-83
2021/08/28 03:00:34;;;;;;;;;5.00;1.67;;;;;;;;5034317;28;45317;-85
2021/08/28 03:02:59;;;;;;;;;3.75;1.00;;;;;;;;5032285;28;45366;-83
2021/08/28 03:05:25;;;;;;;;;4.00;2.00;;;;;;;;5032728;28;46578;-83
2021/08/28 03:07:50;;;;;;;;;1.25;1.25;;;;;;;;5031550;28;45927;-83
2021/08/28 03:10:16;;;;;;;;;1.67;1.00;;;;;;;;5034428;28;45681;-83
2021/08/28 03:12:42;;;;;;;;;1.25;1.25;;;;;;;;5034534;28;45266;-84
2021/08/28 03:15:08;;;;;;;;;2.00;0.75;;;;;;;;5032466;28;45500;-81
2021/08/28 03:17:35;;;;;;;;;2.25;2.25;;;;;;;;5031133;28;45470;-83
2021/08/28 03:20:01;;;;;;;;;2.00;2.00;;;;;;;;5032292;28;45710;-83
2021/08/28 03:22:26;;;;;;;;;2.75;2.00;;;;;;;;5020376;28;45477;-83
2021/08/28 03:24:52;;;;;;;;;3.00;1.00;;;;;;;;5036129;28;45461;-83
2021/08/28 03:27:19;;;;;;;;;4.50;3.00;;;;;;;;5031957;28;45816;-83
2021/08/28 03:29:45;;;;;;;;;5.00;2.00;;;;;;;;5032075;28;45536;-83
2021/08/28 03:32:10;;;;;;;;;5.00;2.00;;;;;;;;5032325;28;45548;-83
2021/08/28 03:34:36;;;;;;;;;5.00;2.00;;;;;;;;5031796;28;46181;-83
2021/08/28 03:37:02;;;;;;;;;3.75;1.75;;;;;;;;5033315;28;46077;-83
2021/08/28 03:39:27;;;;;;;;;2.00;2.00;;;;;;;;5034205;28;45503;-81
2021/08/28 03:41:53;;;;;;;;;8.00;2.50;;;;;;;;5032180;28;45446;-83
2021/08/28 03:44:18;;;;;;;;;1.75;1.75;;;;;;;;5031729;28;46119;-84
2021/08/28 03:46:45;;;;;;;;;5.00;1.00;;;;;;;;5031882;28;45613;-83
2021/08/28 03:49:10;;;;;;;;;3.75;2.75;;;;;;;;5033778;28;45291;-83
2021/08/28 03:51:35;;;;;;;;;2.00;2.00;;;;;;;;5027634;28;45272;-83
2021/08/28 03:54:01;;;;;;;;;2.00;2.00;;;;;;;;5031910;28;45460;-84
2021/08/28 03:56:26;;;;;;;;;4.25;1.00;;;;;;;;5032664;28;45413;-84
2021/08/28 03:58:51;;;;;;;;;3.00;3.00;;;;;;;;5031410;28;45381;-84
2021/08/28 04:01:17;;;;;;;;;2.50;2.50;;;;;;;;5033631;28;45419;-83
2021/08/28 04:03:42;;;;;;;;;2.00;2.00;;;;;;;;5032345;28;48277;-84
2021/08/28 04:06:07;;;;;;;;;2.33;1.00;;;;;;;;5031928;28;45572;-84
2021/08/28 04:08:32;;;;;;;;;3.00;1.67;;;;;;;;5031543;28;45678;-82
2021/08/28 04:10:58;;;;;;;;;2.00;1.67;;;;;;;;5030157;28;45632;-84
2021/08/28 04:13:23;;;;;;;;;4.67;1.67;;;;;;;;5032399;28;45921;-83
2021/08/28 04:15:48;;;;;;;;;5.33;2.33;;;;;;;;5033498;28;46348;-81
2021/08/28 04:18:13;;;;;;;;;2.00;2.00;;;;;;;;5032120;28;45390;-83
2021/08/28 04:20:38;;;;;;;;;4.67;1.67;;;;;;;;5032131;28;45524;-84
2021/08/28 04:23:04;;;;;;;;;3.00;3.00;;;;;;;;5031252;28;45658;-84
2021/08/28 04:25:29;;;;;;;;;5.67;3.00;;;;;;;;5031208;28;45482;-84
2021/08/28 04:27:54;;;;;;;;;2.25;2.00;;;;;;;;5034304;28;45364;-83
2021/08/28 04:30:19;;;;;;;;;3.00;2.67;;;;;;;;5030895;28;45694;-83
2021/08/28 04:32:45;;;;;;;;;4.67;2.33;;;;;;;;5029652;28;47038;-83
2021/08/28 04:35:10;;;;;;;;;3.00;1.00;;;;;;;;5033805;28;45541;-84
2021/08/28 04:37:35;;;;;;;;;5.00;3.25;;;;;;;;5031582;28;45414;-85
2021/08/28 04:40:00;;;;;;;;;3.00;1.67;;;;;;;;5034579;28;45721;-85
2021/08/28 04:42:26;;;;;;;;;2.33;1.67;;;;;;;;5026192;28;51837;-86
2021/08/28 04:44:54;;;;;;;;;2.67;2.67;;;;;;;;5030736;28;45628;-85
2021/08/28 04:47:19;;;;;;;;;3.00;2.00;;;;;;;;5031519;28;45633;-86
2021/08/28 04:49:44;;;;;;;;;5.00;3.00;;;;;;;;5030751;28;45565;-85
2021/08/28 04:52:10;;;;;;;;;3.00;2.00;;;;;;;;5031886;28;48072;-85
2021/08/28 04:54:35;;;;;;;;;3.67;2.67;;;;;;;;5031746;28;45512;-84
2021/08/28 04:57:00;;;;;;;;;2.33;2.00;;;;;;;;5030035;28;45502;-85
2021/08/28 04:59:26;;;;;;;;;4.67;2.33;;;;;;;;5030997;28;45314;-84
2021/08/28 05:01:51;;;;;;;;;3.75;2.00;;;;;;;;5031211;28;45858;-85
2021/08/28 05:04:17;;;;;;;;;2.00;2.00;;;;;;;;5032427;28;45544;-86
2021/08/28 05:06:42;;;;;;;;;2.00;1.50;;;;;;;;5027225;28;45318;-85
2021/08/28 05:09:07;;;;;;;;;4.75;3.00;;;;;;;;5029560;28;45490;-85
2021/08/28 05:11:32;;;;;;;;;1.00;1.00;;;;;;;;5030865;28;45403;-84
2021/08/28 05:13:58;;;;;;;;;2.00;2.00;;;;;;;;5031551;28;45714;-85
2021/08/28 05:16:23;;;;;;;;;3.00;3.00;;;;;;;;5030169;28;45560;-83
2021/08/28 05:18:48;;;;;;;;;2.67;1.33;;;;;;;;5034155;28;45411;-84
2021/08/28 05:21:13;;;;;;;;;4.00;2.67;;;;;;;;5031352;28;46260;-84
2021/08/28 05:23:39;;;;;;;;;3.67;2.00;;;;;;;;5029535;28;46103;-86
2021/08/28 05:26:04;;;;;;;;;2.25;2.00;;;;;;;;5029922;28;45550;-82
2021/08/28 05:28:29;;;;;;;;;1.00;1.00;;;;;;;;5032527;28;45459;-84
2021/08/28 05:30:55;;;;;;;;;4.33;3.00;;;;;;;;5034458;28;45521;-87
2021/08/28 05:33:20;;;;;;;;;3.50;3.00;;;;;;;;5030210;28;45489;-84
2021/08/28 05:35:45;;;;;;;;;7.33;2.00;;;;;;;;5030497;28;45340;-84
2021/08/28 05:38:10;;;;;;;;;3.00;2.67;;;;;;;;5030224;28;45608;-83
2021/08/28 05:40:36;;;;;;;;;3.00;2.00;;;;;;;;5029821;28;46009;-83
2021/08/28 05:43:01;;;;;;;;;2.75;2.25;;;;;;;;5032889;28;45512;-83
2021/08/28 05:45:27;;;;;;;;;3.50;3.50;;;;;;;;5031815;28;45391;-82
2021/08/28 05:47:52;;;;;;;;;3.00;3.00;;;;;;;;5030205;28;45503;-84
2021/08/28 05:50:17;;;;;;;;;4.00;3.00;;;;;;;;5029998;28;45558;-84
2021/08/28 05:52:42;;;;;;;;;4.00;2.00;;;;;;;;5029170;28;45778;-83
2021/08/28 05:55:10;;;;;;;;;3.25;2.00;;;;;;;;5033027;28;45354;-83
2021/08/28 05:57:36;;;;;;;;;4.50;4.00;;;;;;;;5031896;28;45648;-84
2021/08/28 06:00:02;;;;;;;;;4.00;2.50;;;;;;;;5029514;28;46351;-83
2021/08/28 06:02:27;;;;;;;;;4.00;2.75;;;;;;;;5030046;28;45505;-88
2021/08/28 06:04:52;;;;;;;;;6.00;4.00;;;;;;;;5029055;28;45477;-82
2021/08/28 06:07:18;;;;;;;;;7.33;3.00;;;;;;;;5027458;28;45528;-82
2021/08/28 06:09:43;;;;;;;;;6.00;2.67;;;;;;;;5028517;28;47259;-84
2021/08/28 06:12:08;;;;;;;;;4.67;3.00;;;;;;;;5027376;28;45600;-82
2021/08/28 06:14:33;;;;;;;;;5.67;2.00;;;;;;;;5029336;28;45497;-82
2021/08/28 06:16:58;;;;;;;;;4.00;2.00;;;;;;;;5029586;28;45583;-83
2021/08/28 06:19:24;;;;;;;;;4.00;2.00;;;;;;;;5030958;28;45618;-82
2021/08/28 06:21:49;;;;;;;;;6.50;3.25;;;;;;;;5023792;28;45504;-82
2021/08/28 06:24:14;;;;;;;;;4.00;4.00;;;;;;;;5030143;28;45686;-83
2021/08/28 06:26:39;;;;;;;;;2.67;2.00;;;;;;;;5027453;28;45585;-84
2021/08/28 06:29:05;;;;;;;;;5.00;3.00;;;;;;;;5027871;28;48070;-83
2021/08/28 06:31:30;;;;;;;;;4.00;2.75;;;;;;;;5030232;28;45622;-83
2021/08/28 06:33:56;;;;;;;;;6.00;4.50;;;;;;;;5021054;28;45670;-84
2021/08/28 06:36:21;;;;;;;;;8.67;3.00;;;;;;;;5019032;28;48955;-83
2021/08/28 06:38:46;;;;;;;;;6.00;4.00;;;;;;;;5026963;28;47303;-83
2021/08/28 06:41:11;;;;;;;;;5.00;4.00;;;;;;;;5023659;28;45546;-84
2021/08/28 06:43:36;;;;;;;;;2.67;2.67;;;;;;;;5021079;28;45479;-83
2021/08/28 06:46:02;;;;;;;;;5.33;2.00;;;;;;;;5025389;28;45519;-82
2021/08/28 06:48:27;;;;;;;;;4.50;3.50;;;;;;;;5023293;28;45576;-82
2021/08/28 06:50:52;;;;;;;;;5.00;2.75;;;;;;;;5023365;28;45582;-82
2021/08/28 06:53:17;;;;;;;;;4.33;3.00;;;;;;;;5020298;28;45462;-83
2021/08/28 06:55:43;;;;;;;;;4.33;3.00;;;;;;;;5022781;28;45558;-82
2021/08/28 06:58:08;;;;;;;;;4.00;2.00;;;;;;;;5019501;28;47059;-82
2021/08/28 07:00:33;;;;;;;;;3.50;3.50;;;;;;;;5020227;28;45487;-81
2021/08/28 07:02:59;;;;;;;;;6.00;3.00;;;;;;;;5020556;28;45745;-83
2021/08/28 07:05:24;;;;;;;;;2.00;2.00;;;;;;;;5022739;28;45439;-82
2021/08/28 07:07:50;;;;;;;;;3.00;2.00;;;;;;;;5019211;28;46682;-82
2021/08/28 07:10:15;;;;;;;;;6.00;3.25;;;;;;;;5019831;28;48876;-82
2021/08/28 07:12:41;;;;;;;;;5.00;2.00;;;;;;;;5020019;28;45481;-82
2021/08/28 07:15:06;;;;;;;;;3.25;2.25;;;;;;;;5020492;28;45482;-82
2021/08/28 07:17:32;;;;;;;;;2.75;2.75;;;;;;;;5018723;28;45668;-82
2021/08/28 07:19:57;;;;;;;;;5.00;2.75;;;;;;;;5018731;28;45444;-83
2021/08/28 07:22:22;;;;;;;;;3.50;3.00;;;;;;;;5019500;28;45466;-83
2021/08/28 07:24:47;;;;;;;;;6.67;4.00;;;;;;;;5019552;28;45522;-82
2021/08/28 07:27:13;;;;;;;;;4.00;3.00;;;;;;;;5022771;28;46455;-82
2021/08/28 07:29:38;;;;;;;;;4.67;3.33;;;;;;;;5018503;28;46052;-82
2021/08/28 07:32:03;;;;;;;;;7.00;2.00;;;;;;;;5016076;28;45523;-82
2021/08/28 07:34:35;;;;;;;;;5.50;3.50;;;;;;;;5020998;28;45694;-83
2021/08/28 07:37:00;;;;;;;;;3.00;3.00;;;;;;;;5015948;28;48488;-83
2021/08/28 07:39:27;;;;;;;;;4.50;3.00;;;;;;;;5019532;28;45453;-83
2021/08/28 07:41:52;;;;;;;;;5.00;3.25;;;;;;;;5019594;28;45528;-83
2021/08/28 07:44:17;;;;;;;;;3.67;2.00;;;;;;;;5021429;28;45465;-82
2021/08/28 07:46:43;;;;;;;;;3.00;3.00;;;;;;;;5027294;28;45667;-83
2021/08/28 07:49:08;;;;;;;;;4.25;3.00;;;;;;;;5032258;28;45601;-83
2021/08/28 07:51:33;;;;;;;;;4.00;4.00;;;;;;;;5031268;28;45374;-83
2021/08/28 07:53:59;;;;;;;;;7.00;3.00;;;;;;;;5030847;28;45351;-82
2021/08/28 07:56:24;;;;;;;;;2.67;2.67;;;;;;;;5032253;28;46095;-85
2021/08/28 07:58:49;;;;;;;;;3.33;3.00;;;;;;;;5034234;28;46098;-83
2021/08/28 08:01:15;;;;;;;;;5.00;3.00;;;;;;;;5030052;28;45456;-83
2021/08/28 08:03:40;;;;;;;;;3.00;2.00;;;;;;;;5030393;28;45443;-83
2021/08/28 08:06:05;;;;;;;;;3.00;2.00;;;;;;;;5023733;28;47090;-83
2021/08/28 08:08:31;;;;;;;;;6.75;3.00;;;;;;;;5026049;28;45711;-83
2021/08/28 08:10:56;;;;;;;;;4.00;3.00;;;;;;;;5024986;28;45380;-83
2021/08/28 08:13:21;;;;;;;;;3.00;3.00;;;;;;;;5030215;28;45514;-85
2021/08/28 08:15:46;;;;;;;;;3.33;3.00;;;;;;;;5029283;28;48535;-85
2021/08/28 08:18:12;;;;;;;;;3.00;1.50;;;;;;;;5023600;28;48564;-84
2021/08/28 08:20:37;;;;;;;;;5.00;3.00;;;;;;;;5025982;28;45459;-83
2021/08/28 08:23:03;;;;;;;;;4.67;2.33;;;;;;;;5026224;28;45624;-85
2021/08/28 08:25:29;;;;;;;;;3.00;2.00;;;;;;;;5021483;28;45677;-84
2021/08/28 08:27:54;;;;;;;;;3.00;2.00;;;;;;;;5025830;28;46575;-83
2021/08/28 08:30:20;;;;;;;;;4.50;3.00;;;;;;;;5019975;28;45647;-84
2021/08/28 08:32:45;;;;;;;;;5.67;3.00;;;;;;;;5021020;28;45416;-82
2021/08/28 08:35:10;;;;;;;;;4.75;3.00;;;;;;;;5023947;28;46257;-84
2021/08/28 08:37:35;;;;;;;;;4.00;3.00;;;;;;;;5025094;28;45537;-84
2021/08/28 08:40:01;;;;;;;;;5.00;3.00;;;;;;;;5025335;28;45469;-84
2021/08/28 08:42:26;;;;;;;;;3.67;3.00;;;;;;;;5027644;28;45741;-85
2021/08/28 08:44:52;;;;;;;;;3.50;2.50;;;;;;;;5029290;28;45591;-84
2021/08/28 08:47:18;;;;;;;;;2.75;2.75;;;;;;;;5029898;28;45335;-83
2021/08/28 08:49:43;;;;;;;;;2.67;2.33;;;;;;;;5029212;28;45604;-83
2021/08/28 08:52:09;;;;;;;;;6.50;4.00;;;;;;;;5030702;28;45424;-84
2021/08/28 08:54:35;;;;;;;;;3.75;3.75;;;;;;;;5022898;28;46248;-82
2021/08/28 08:57:01;;;;;;;;;7.00;3.00;;;;;;;;5028697;28;45603;-85
2021/08/28 08:59:27;;;;;;;;;5.00;3.00;;;;;;;;5027743;28;45465;-84
2021/08/28 09:01:52;;;;;;;;;5.00;3.25;;;;;;;;5026342;28;45554;-85
2021/08/28 09:04:17;;;;;;;;;5.00;2.00;;;;;;;;5027863;28;46099;-85
2021/08/28 09:06:46;;;;;;;;;2.00;2.00;;;;;;;;5016000;28;45441;-84
2021/08/28 09:09:15;;;;;;;;;4.25;3.00;;;;;;;;5017664;28;45406;-84
2021/08/28 09:11:56;;;;;;;;;2.25;2.25;;;;;;;;5024446;28;45253;-86
2021/08/28 09:14:22;;;;;;;;;5.25;2.50;;;;;;;;5035126;28;48428;-85
2021/08/28 09:16:48;;;;;;;;;3.00;3.00;;;;;;;;5026866;28;45504;-85
2021/08/28 09:19:13;;;;;;;;;3.25;1.75;;;;;;;;5025521;28;45472;-85
2021/08/28 09:21:39;;;;;;;;;3.00;3.00;;;;;;;;5021718;28;45426;-85
2021/08/28 09:24:06;;;;;;;;;10.50;3.00;;;;;;;;5025954;28;45647;-85
2021/08/28 09:26:49;;;;;;;;;6.50;3.25;;;;;;;;5028546;28;45558;-85
2021/08/28 09:29:15;;;;;;;;;2.50;2.00;;;;;;;;5022714;28;45451;-85
2021/08/28 09:31:47;;;;;;;;;3.00;3.00;;;;;;;;5028946;28;45484;-85
2021/08/28 09:34:20;;;;;;;;;4.25;3.00;;;;;;;;5027471;28;48292;-81
2021/08/28 09:36:51;;;;;;;;;4.75;2.00;;;;;;;;5017788;28;45718;-84
2021/08/28 09:39:17;;;;;;;;;3.75;2.50;;;;;;;;5017121;28;45739;-85
2021/08/28 09:41:42;;;;;;;;;4.25;2.00;;;;;;;;5016260;28;51996;-82
2021/08/28 09:44:08;;;;;;;;;2.67;2.67;;;;;;;;5019803;28;45734;-84
2021/08/28 09:46:33;;;;;;;;;3.00;3.00;;;;;;;;5043084;28;45426;-85
2021/08/28 09:49:02;;;;;;;;;2.00;2.00;;;;;;;;5045527;28;45258;-84
2021/08/28 09:51:34;;;;;;;;;3.75;2.75;;;;;;;;5045211;28;44797;-84
2021/08/28 09:54:00;;;;;;;;;1.75;1.50;;;;;;;;5031258;28;45486;-87
2021/08/28 09:56:27;;;;;;;;;6.25;2.50;;;;;;;;5022249;28;45493;-84
2021/08/28 09:58:52;;;;;;;;;4.50;2.50;;;;;;;;5021548;28;45430;-83
2021/08/28 10:01:20;;;;;;;;;1.00;1.00;;;;;;;;5025291;28;45329;-86
2021/08/28 10:03:56;;;;;;;;;3.75;3.00;;;;;;;;5028854;28;46219;-85
2021/08/28 10:06:21;;;;;;;;;5.00;4.50;;;;;;;;5032394;28;45787;-85
2021/08/28 10:08:47;;;;;;;;;4.00;2.00;;;;;;;;5030816;28;45451;-85
2021/08/28 10:11:12;;;;;;;;;5.00;2.00;;;;;;;;5028096;28;45798;-84
2021/08/28 10:13:38;;;;;;;;;3.00;3.00;;;;;;;;5032561;28;47409;-80
2021/08/28 10:16:04;;;;;;;;;6.00;3.00;;;;;;;;5033780;28;45719;-84
2021/08/28 10:18:30;;;;;;;;;2.25;2.25;;;;;;;;5037443;28;44791;-85
2021/08/28 10:20:57;;;;;;;;;3.50;2.00;;;;;;;;5038244;28;45317;-84
2021/08/28 10:23:25;;;;;;;;;2.50;2.00;;;;;;;;5038546;28;48573;-85
2021/08/28 10:25:51;;;;;;;;;3.00;3.00;;;;;;;;5043262;28;45815;-83
2021/08/28 10:28:17;;;;;;;;;4.50;2.00;;;;;;;;5051038;28;45548;-84
2021/08/28 10:30:42;;;;;;;;;3.00;2.00;;;;;;;;5045804;28;45404;-84
2021/08/28 10:33:08;;;;;;;;;4.00;4.00;;;;;;;;5036095;28;45458;-86
2021/08/28 10:35:33;;;;;;;;;4.50;2.00;;;;;;;;5040100;28;44829;-84
2021/08/28 10:37:59;;;;;;;;;7.00;3.25;;;;;;;;5041439;28;45463;-83
2021/08/28 10:40:31;;;;;;;;;5.00;2.00;;;;;;;;5033000;28;45562;-84
2021/08/28 10:43:03;;;;;;;;;3.75;2.00;;;;;;;;5026639;28;48569;-85
2021/08/28 10:45:30;;;;;;;;;2.75;2.75;;;;;;;;5017253;28;45474;-83
2021/08/28 10:47:57;;;;;;;;;5.50;4.00;;;;;;;;5018920;28;45567;-85
2021/08/28 10:50:22;;;;;;;;;3.00;3.00;;;;;;;;5017201;28;45429;-85
2021/08/28 10:52:49;;;;;;;;;4.00;2.75;;;;;;;;5016924;28;48470;-84
2021/08/28 10:55:14;;;;;;;;;3.25;3.25;;;;;;;;5019405;28;45799;-84
2021/08/28 10:57:40;;;;;;;;;5.00;3.00;;;;;;;;5020903;28;45504;-84
2021/08/28 11:00:09;;;;;;;;;3.00;3.00;;;;;;;;5018466;28;45437;-84
2021/08/28 11:02:46;;;;;;;;;3.50;3.50;;;;;;;;5018885;28;45460;-84
2021/08/28 11:05:17;;;;;;;;;3.75;3.00;;;;;;;;5017117;28;45763;-85
2021/08/28 11:07:43;;;;;;;;;4.00;2.00;;;;;;;;5015641;28;45437;-84
2021/08/28 11:10:11;;;;;;;;;3.00;3.00;;;;;;;;5024205;28;45537;-83
2021/08/28 11:12:50;;;;;;;;;4.50;4.00;;;;;;;;5018110;28;46427;-84
2021/08/28 11:15:24;;;;;;;;;5.50;2.50;;;;;;;;5020435;28;45835;-84
2021/08/28 11:17:50;;;;;;;;;2.75;2.75;;;;;;;;5015237;28;45402;-84
2021/08/28 11:20:32;;;;;;;;;2.25;2.25;;;;;;;;5017114;28;45906;-85
2021/08/28 11:22:59;;;;;;;;;4.25;4.00;;;;;;;;5017026;28;45551;-85
2021/08/28 11:25:29;;;;;;;;;5.00;2.00;;;;;;;;5019863;28;46371;-84
2021/08/28 11:27:56;;;;;;;;;3.00;3.00;;;;;;;;5025585;28;45485;-85
2021/08/28 11:30:40;;;;;;;;;4.00;3.75;;;;;;;;5024949;28;45722;-85
2021/08/28 11:33:09;;;;;;;;;2.75;1.50;;;;;;;;5020270;28;45670;-85
2021/08/28 11:35:38;;;;;;;;;4.25;2.00;;;;;;;;5027699;28;45616;-85
2021/08/28 11:38:04;;;;;;;;;3.50;2.00;;;;;;;;5032907;28;45376;-84
2021/08/28 11:40:30;;;;;;;;;3.75;2.75;;;;;;;;5027794;28;45503;-85
2021/08/28 11:42:55;;;;;;;;;1.75;1.50;;;;;;;;5032110;28;47211;-85
2021/08/28 11:45:27;;;;;;;;;2.75;2.00;;;;;;;;5025251;28;45446;-85
2021/08/28 11:47:52;;;;;;;;;2.25;2.25;;;;;;;;5021769;28;45372;-85
2021/08/28 11:50:18;;;;;;;;;4.00;2.00;;;;;;;;5029601;28;45371;-86
2021/08/28 11:52:43;;;;;;;;;2.25;1.75;;;;;;;;5026646;28;52759;-85
2021/08/28 11:55:09;;;;;;;;;3.67;2.00;;;;;;;;5020472;28;45776;-84
2021/08/28 11:57:35;;;;;;;;;3.75;1.00;;;;;;;;5021119;28;45468;-84
2021/08/28 12:00:02;;;;;;;;;2.00;2.00;;;;;;;;5018745;28;45480;-85
2021/08/28 12:02:28;;;;;;;;;2.50;2.00;;;;;;;;5016316;28;46022;-86
2021/08/28 12:04:53;;;;;;;;;3.00;3.00;;;;;;;;5026552;28;45562;-84
2021/08/28 12:07:18;;;;;;;;;2.00;2.00;;;;;;;;5016740;28;45666;-85
2021/08/28 12:09:43;;;;;;;;;2.00;2.00;;;;;;;;5028781;28;45433;-85
2021/08/28 12:12:09;;;;;;;;;2.00;2.00;;;;;;;;5019474;28;45503;-84
2021/08/28 12:14:35;;;;;;;;;1.75;1.75;;;;;;;;5022618;28;45485;-84
2021/08/28 12:17:00;;;;;;;;;2.50;1.75;;;;;;;;5021507;28;45544;-85
2021/08/28 12:19:29;;;;;;;;;1.25;1.25;;;;;;;;5019794;28;45361;-84
2021/08/28 12:22:04;;;;;;;;;1.00;1.00;;;;;;;;5018847;28;46551;-85
2021/08/28 12:24:31;;;;;;;;;1.50;1.00;;;;;;;;5021536;28;45623;-85
2021/08/28 12:26:56;;;;;;;;;0.00;0.00;;;;;;;;5014936;28;45606;-85
2021/08/28 12:29:32;;;;;;;;;1.00;1.00;;;;;;;;5013983;28;45618;-85
2021/08/28 12:32:11;;;;;;;;;0.00;0.00;;;;;;;;5013082;28;47599;-83
2021/08/28 12:34:37;;;;;;;;;0.25;0.25;;;;;;;;5012685;28;45832;-81
2021/08/28 12:37:04;;;;;;;;;0.00;0.00;;;;;;;;5024422;28;46377;-85
2021/08/28 12:39:29;;;;;;;;;1.75;1.00;;;;;;;;5020405;28;45913;-86
2021/08/28 12:41:55;;;;;;;;;0.00;0.00;;;;;;;;5023006;28;46086;-86
2021/08/28 12:44:21;;;;;;;;;0.00;0.00;;;;;;;;5025526;28;45477;-84
2021/08/28 12:46:50;;;;;;;;;1.00;1.00;;;;;;;;5028414;28;45493;-85
2021/08/28 12:49:17;;;;;;;;;0.25;0.25;;;;;;;;5028443;28;45469;-85
2021/08/28 12:52:02;;;;;;;;;1.00;0.25;;;;;;;;5016122;28;45513;-79
2021/08/28 12:54:33;;;;;;;;;0.00;0.00;;;;;;;;5020809;28;45841;-85
2021/08/28 12:57:06;;;;;;;;;0.00;0.00;;;;;;;;5025761;28;45585;-85
2021/08/28 12:59:38;;;;;;;;;1.00;1.00;;;;;;;;5026171;28;45909;-84
2021/08/28 13:02:03;;;;;;;;;1.50;1.00;;;;;;;;5029331;28;45677;-85
2021/08/28 13:04:30;;;;;;;;;2.33;1.00;;;;;;;;5018278;28;45561;-84
2021/08/28 13:07:15;;;;;;;;;0.25;0.25;;;;;;;;5017303;28;45451;-86
2021/08/28 13:09:49;;;;;;;;;1.50;1.00;;;;;;;;5018867;28;45485;-84
2021/08/28 13:12:15;;;;;;;;;0.00;0.00;;;;;;;;5019891;28;48414;-86
2021/08/28 13:14:53;;;;;;;;;2.00;1.00;;;;;;;;5015954;28;45567;-85
2021/08/28 13:17:22;;;;;;;;;1.00;1.00;;;;;;;;5017221;28;45439;-84
2021/08/28 13:19:58;;;;;;;;;2.00;0.00;;;;;;;;5017927;28;45388;-85
2021/08/28 13:22:24;;;;;;;;;1.25;1.25;;;;;;;;5015033;28;50975;-86
2021/08/28 13:24:49;;;;;;;;;0.25;0.25;;;;;;;;5019710;28;45350;-84
2021/08/28 13:27:14;;;;;;;;;0.00;0.00;;;;;;;;5029114;28;45335;-85
2021/08/28 13:29:41;;;;;;;;;1.00;0.00;;;;;;;;5031135;28;45605;-85
2021/08/28 13:32:08;;;;;;;;;1.25;1.25;;;;;;;;5018912;28;48595;-85
2021/08/28 13:34:37;;;;;;;;;2.50;1.00;;;;;;;;5025381;28;45481;-85
2021/08/28 13:37:03;;;;;;;;;2.00;0.50;;;;;;;;5031849;28;45387;-85
2021/08/28 13:39:28;;;;;;;;;2.00;1.00;;;;;;;;5030517;28;45464;-86
2021/08/28 13:41:54;;;;;;;;;3.75;0.00;;;;;;;;5028845;28;45756;-85
2021/08/28 13:44:19;;;;;;;;;0.00;0.00;;;;;;;;5028789;28;45342;-86
2021/08/28 13:46:44;;;;;;;;;0.33;0.33;;;;;;;;5030558;28;46908;-87
2021/08/28 13:49:09;;;;;;;;;0.67;0.67;;;;;;;;5032845;28;45320;-85
2021/08/28 13:51:35;;;;;;;;;2.00;0.00;;;;;;;;5031643;28;46389;-86
2021/08/28 13:54:00;;;;;;;;;4.00;0.00;;;;;;;;5027248;28;45478;-85
2021/08/28 13:56:25;;;;;;;;;0.00;0.00;;;;;;;;5030239;28;45402;-86
2021/08/28 13:58:50;;;;;;;;;2.67;1.00;;;;;;;;5030137;28;45382;-85
2021/08/28 14:01:15;;;;;;;;;0.00;0.00;;;;;;;;5031990;28;46152;-86
2021/08/28 14:03:41;;;;;;;;;0.25;0.00;;;;;;;;5028963;28;45456;-85
2021/08/28 14:06:06;;;;;;;;;1.00;1.00;;;;;;;;5027085;28;45502;-87
2021/08/28 14:08:31;;;;;;;;;2.00;0.67;;;;;;;;5030158;28;45561;-85
2021/08/28 14:10:57;;;;;;;;;3.75;1.75;;;;;;;;5029783;28;45472;-84
2021/08/28 14:13:22;;;;;;;;;1.00;1.00;;;;;;;;5031079;28;45331;-85
2021/08/28 14:15:47;;;;;;;;;0.75;0.75;;;;;;;;5025199;28;45394;-83
2021/08/28 14:18:12;;;;;;;;;1.67;1.00;;;;;;;;5028445;28;45532;-84
2021/08/28 14:20:37;;;;;;;;;1.67;1.67;;;;;;;;5030157;28;45571;-85
2021/08/28 14:23:03;;;;;;;;;2.67;1.67;;;;;;;;5029969;28;45397;-84
2021/08/28 14:25:29;;;;;;;;;1.67;1.00;;;;;;;;5018119;28;45740;-85
2021/08/28 14:27:54;;;;;;;;;3.75;2.00;;;;;;;;5032610;28;45750;-84
2021/08/28 14:30:19;;;;;;;;;3.67;2.67;;;;;;;;5033159;28;46190;-85
2021/08/28 14:32:45;;;;;;;;;2.33;2.33;;;;;;;;5033582;28;45734;-85
2021/08/28 14:35:10;;;;;;;;;2.67;2.67;;;;;;;;5031059;28;45441;-82
2021/08/28 14:37:36;;;;;;;;;6.25;3.25;;;;;;;;5033326;28;45438;-84
2021/08/28 14:40:01;;;;;;;;;2.25;2.25;;;;;;;;5034426;28;46995;-83